Linda Moran — WDE4187 — position and weather

sailwx.info

Track history (hours):
 
Tides and Currents Weather Stations Pressure Air Temp Water Temp Dewpoint Dewpoint Depression Visibility Wind Speed Wind Dir Waves Ship Positions

Linda Moran

Owner: MORAN TOWING CORP., NEW CANAAN, CT. More information available from US FCC via Universal Licensing System and Coast Guard Vessel Documentation Center.

Last reported at 2018-Apr-20 16:30 UTC. Time now 2018-Apr-20 16:44 UTC.
Position N 39°14' W 076°32'.

Length 156 m; draft 7.6 m.

Type: . MMSI: 367349860.

Date/timePositionNaut miles runAvg speedWind from/ knotsBaromVisibWave heightAir tempDewpointWater temp
2018-Apr-20 16:30N 39°14' W 076°32'0 0.0
2018-Apr-20 16:00N 39°14' W 076°32'0 0.0
2018-Apr-20 15:30N 39°14' W 076°32'0 0.0
2018-Apr-20 15:00N 39°14' W 076°32'0 0.0
2018-Apr-20 14:30N 39°14' W 076°32'0 0.0
2018-Apr-20 14:00N 39°14' W 076°32'0 0.0
2018-Apr-20 13:30N 39°14' W 076°32'0 0.0
2018-Apr-20 13:00N 39°14' W 076°32'0 0.1
2018-Apr-20 12:30N 39°14' W 076°32'0 0.1
2018-Apr-20 12:00N 39°14' W 076°32'0 0.1
2018-Apr-20 11:30N 39°14' W 076°32'3 5.4
2018-Apr-20 11:00N 39°12' W 076°30'5 9.4
2018-Apr-20 10:30N 39°10' W 076°25'5 8.9
2018-Apr-20 10:00N 39°09' W 076°19'1610.3
2018-Apr-20 08:25N 39°22' W 076°07'4 9.8
2018-Apr-20 08:00N 39°24' W 076°02'510.8
2018-Apr-20 07:30N 39°28' W 075°58'510.1
2018-Apr-20 07:00N 39°31' W 075°53'3 7.0
2018-Apr-20 06:30N 39°32' W 075°48'4 8.5
2018-Apr-20 06:00N 39°33' W 075°43'5 9.5
2018-Apr-20 05:30N 39°33' W 075°37'2 4.4
2018-Apr-20 05:00N 39°34' W 075°34'1 2.9
2018-Apr-20 04:31N 39°35' W 075°36'0 0.0
2018-Apr-20 04:01N 39°35' W 075°36'0 0.0
2018-Apr-20 03:29N 39°35' W 075°36'0 0.0
2018-Apr-20 02:59N 39°35' W 075°36'0 0.0
2018-Apr-20 02:29N 39°35' W 075°36'0 0.0
2018-Apr-20 01:59N 39°35' W 075°36'0 0.0
2018-Apr-20 01:29N 39°35' W 075°36'0 0.0
2018-Apr-20 00:59N 39°35' W 075°36'0 0.0
2018-Apr-20 00:29N 39°35' W 075°36'0 0.0
2018-Apr-19 23:59N 39°35' W 075°36'0 0.0
2018-Apr-19 23:17N 39°35' W 075°36'0 0.0
2018-Apr-19 22:59N 39°35' W 075°36'0 0.0
2018-Apr-19 22:29N 39°35' W 075°36'0 0.0
2018-Apr-19 21:59N 39°35' W 075°36'0 0.0
2018-Apr-19 21:29N 39°35' W 075°36'0 0.0
2018-Apr-19 20:59N 39°35' W 075°36'0 0.0
2018-Apr-19 20:29N 39°35' W 075°36'0 0.0
2018-Apr-19 19:59N 39°35' W 075°36'0 0.0
2018-Apr-19 19:29N 39°35' W 075°36'0 0.0
2018-Apr-19 18:59N 39°35' W 075°36'0 0.0
2018-Apr-19 18:29N 39°35' W 075°36'0 0.0
2018-Apr-19 17:59N 39°35' W 075°36'0 0.0
2018-Apr-19 17:29N 39°35' W 075°36'0 0.0
2018-Apr-19 16:59N 39°35' W 075°36'0 0.0
2018-Apr-19 16:29N 39°35' W 075°36'0 0.0
2018-Apr-19 15:59N 39°35' W 075°36'0 0.0
2018-Apr-19 15:29N 39°35' W 075°36'0 0.0
2018-Apr-19 14:59N 39°35' W 075°36'0 0.0
2018-Apr-19 14:29N 39°35' W 075°36'0 0.0
2018-Apr-19 13:50N 39°35' W 075°36'0 0.0
2018-Apr-19 13:29N 39°35' W 075°36'0 0.0
2018-Apr-19 12:59N 39°35' W 075°36'0 0.0
2018-Apr-19 12:29N 39°35' W 075°36'0 0.0
2018-Apr-19 11:59N 39°35' W 075°36'0 0.0
2018-Apr-19 11:29N 39°35' W 075°36'0 0.0
2018-Apr-19 10:59N 39°35' W 075°36'0 0.0
2018-Apr-19 10:29N 39°35' W 075°36'0 0.0
2018-Apr-19 09:59N 39°35' W 075°36'0 0.0
2018-Apr-19 09:29N 39°35' W 075°36'0 0.0
2018-Apr-19 08:59N 39°35' W 075°36'0 0.0
2018-Apr-19 08:29N 39°35' W 075°36'0 0.0
2018-Apr-19 07:59N 39°35' W 075°36'0 0.0
2018-Apr-19 07:29N 39°35' W 075°36'0 0.0
2018-Apr-19 06:59N 39°35' W 075°36'0 0.0
2018-Apr-19 06:29N 39°35' W 075°36'0 0.0
2018-Apr-19 05:59N 39°35' W 075°36'0 0.0
2018-Apr-19 05:29N 39°35' W 075°36'0 0.8
2018-Apr-19 05:00N 39°35' W 075°35'3 5.7
2018-Apr-19 04:30N 39°33' W 075°33'0 0.1
2018-Apr-19 03:59N 39°33' W 075°33'0 0.0
2018-Apr-19 03:29N 39°33' W 075°33'0 0.0
2018-Apr-19 02:59N 39°33' W 075°33'0 0.1
2018-Apr-19 02:29N 39°33' W 075°33'0 0.1
2018-Apr-19 01:59N 39°33' W 075°33'0 0.3
2018-Apr-19 01:29N 39°33' W 075°33'0 0.1
2018-Apr-19 00:59N 39°33' W 075°33'0 0.0
2018-Apr-19 00:29N 39°33' W 075°33'0 0.0
2018-Apr-18 23:59N 39°33' W 075°33'0 0.0
2018-Apr-18 23:29N 39°33' W 075°33'0 0.0
2018-Apr-18 22:59N 39°33' W 075°33'1 1.6
2018-Apr-18 22:30N 39°33' W 075°33'510.3
2018-Apr-18 22:00N 39°39' W 075°34'611.3
2018-Apr-18 21:30N 39°44' W 075°30'510.3
2018-Apr-18 21:00N 39°48' W 075°26'510.0
2018-Apr-18 20:30N 39°51' W 075°21'4 8.8
2018-Apr-18 20:00N 39°51' W 075°15'4 8.2
2018-Apr-18 19:30N 39°53' W 075°10'3 6.2
2018-Apr-18 19:00N 39°56' W 075°08'3 6.0
2018-Apr-18 18:30N 39°58' W 075°07'2 3.8
2018-Apr-18 18:00N 39°59' W 075°04'0 0.0
2018-Apr-18 17:30N 39°59' W 075°04'0 0.0
2018-Apr-18 17:00N 39°59' W 075°04'0 0.0
2018-Apr-18 16:30N 39°59' W 075°04'0 0.0
2018-Apr-18 16:00N 39°59' W 075°04'0 0.0
2018-Apr-18 15:27N 39°59' W 075°04'0 0.0
2018-Apr-18 15:00N 39°59' W 075°04'0 0.0
2018-Apr-18 14:30N 39°59' W 075°04'0 0.0
2018-Apr-18 14:00N 39°59' W 075°04'0 0.0
2018-Apr-18 13:27N 39°59' W 075°04'0 0.0
2018-Apr-18 13:00N 39°59' W 075°04'0 0.0
2018-Apr-18 12:30N 39°59' W 075°04'0 0.0
2018-Apr-18 12:00N 39°59' W 075°04'0 0.0
2018-Apr-18 11:30N 39°59' W 075°04'0 0.0
2018-Apr-18 11:00N 39°59' W 075°04'0 0.0
2018-Apr-18 10:30N 39°59' W 075°04'0 0.0
2018-Apr-18 10:00N 39°59' W 075°04'0 0.0
2018-Apr-18 09:30N 39°59' W 075°04'0 0.0
2018-Apr-18 09:00N 39°59' W 075°04'0 0.0
2018-Apr-18 08:27N 39°59' W 075°04'0 0.0
2018-Apr-18 08:00N 39°59' W 075°04'0 0.0
2018-Apr-18 07:30N 39°59' W 075°04'0 0.0
2018-Apr-18 07:00N 39°59' W 075°04'0 0.0
2018-Apr-18 06:30N 39°59' W 075°04'0 0.0
2018-Apr-18 06:00N 39°59' W 075°04'0 0.0
2018-Apr-18 05:30N 39°59' W 075°04'0 0.0
2018-Apr-18 05:00N 39°59' W 075°04'0 0.0
2018-Apr-18 04:27N 39°59' W 075°04'0 0.0
2018-Apr-18 04:00N 39°59' W 075°04'0 0.0
2018-Apr-18 03:30N 39°59' W 075°04'0 0.0
2018-Apr-18 03:00N 39°59' W 075°04'0 0.0
2018-Apr-18 02:30N 39°59' W 075°04'0 0.0
2018-Apr-18 02:00N 39°59' W 075°04'0 0.0
2018-Apr-18 01:30N 39°59' W 075°04'0 0.0
2018-Apr-18 01:00N 39°59' W 075°04'0 0.0
2018-Apr-18 00:30N 39°59' W 075°04'0 0.0
2018-Apr-18 00:00N 39°59' W 075°04'0 0.0
2018-Apr-17 23:24N 39°59' W 075°04'0 0.0
2018-Apr-17 23:00N 39°59' W 075°04'0 0.0
2018-Apr-17 22:30N 39°59' W 075°04'0 0.0
2018-Apr-17 21:57N 39°59' W 075°04'0 0.0
2018-Apr-17 21:30N 39°59' W 075°04'0 0.0
2018-Apr-17 20:57N 39°59' W 075°04'0 0.0
2018-Apr-17 20:30N 39°59' W 075°04'0 0.0
2018-Apr-17 20:00N 39°59' W 075°04'0 0.0
2018-Apr-17 19:30N 39°59' W 075°04'0 0.0
2018-Apr-17 19:00N 39°59' W 075°04'0 0.0
2018-Apr-17 18:30N 39°59' W 075°04'0 0.0
2018-Apr-17 18:00N 39°59' W 075°04'0 0.0
2018-Apr-17 17:30N 39°59' W 075°04'0 0.0
2018-Apr-17 17:00N 39°59' W 075°04'0 0.0
2018-Apr-17 16:30N 39°59' W 075°04'0 0.0
2018-Apr-17 16:00N 39°59' W 075°04'0 0.0
2018-Apr-17 15:30N 39°59' W 075°04'0 0.0
2018-Apr-17 15:00N 39°59' W 075°04'2 3.8
2018-Apr-17 14:30N 39°58' W 075°07'3 6.7
2018-Apr-17 14:00N 39°55' W 075°08'3 6.1
2018-Apr-17 13:30N 39°53' W 075°11'4 7.8
2018-Apr-17 13:00N 39°51' W 075°15'4 7.7
2018-Apr-17 12:30N 39°51' W 075°20'4 7.5
2018-Apr-17 12:00N 39°49' W 075°24'4 8.8
2018-Apr-17 11:30N 39°46' W 075°29'4 7.5
2018-Apr-17 11:00N 39°42' W 075°31'3 6.5
2018-Apr-17 10:30N 39°40' W 075°32'4 7.1
2018-Apr-17 10:00N 39°36' W 075°34'2 4.3
2018-Apr-17 09:30N 39°34' W 075°34'2 3.8
2018-Apr-17 09:00N 39°35' W 075°36'0 0.0
2018-Apr-17 08:29N 39°35' W 075°36'0 0.0
2018-Apr-17 07:59N 39°35' W 075°36'0 0.0
2018-Apr-17 07:29N 39°35' W 075°36'0 0.0
2018-Apr-17 06:59N 39°35' W 075°36'0 0.0
2018-Apr-17 06:29N 39°35' W 075°36'0 0.0
2018-Apr-17 06:00N 39°35' W 075°36'0 0.0
2018-Apr-17 05:29N 39°35' W 075°36'0 0.0
2018-Apr-17 05:00N 39°35' W 075°36'0 0.0
2018-Apr-17 04:30N 39°35' W 075°36'0 0.0
2018-Apr-17 03:59N 39°35' W 075°36'0 0.0
2018-Apr-17 03:30N 39°35' W 075°36'0 0.0
2018-Apr-17 02:59N 39°35' W 075°36'0 0.0
2018-Apr-17 02:29N 39°35' W 075°36'0 0.0
2018-Apr-17 01:59N 39°35' W 075°36'0 0.0
2018-Apr-17 01:29N 39°35' W 075°36'0 0.0
2018-Apr-17 00:59N 39°35' W 075°36'0 0.0
2018-Apr-17 00:29N 39°35' W 075°36'0 0.0
2018-Apr-16 23:59N 39°35' W 075°36'0 0.0
2018-Apr-16 23:29N 39°35' W 075°36'0 0.0
2018-Apr-16 22:59N 39°35' W 075°36'0 0.0
2018-Apr-16 22:29N 39°35' W 075°36'0 0.0
2018-Apr-16 21:59N 39°35' W 075°36'0 0.0
2018-Apr-16 21:29N 39°35' W 075°36'0 0.0
2018-Apr-16 20:59N 39°35' W 075°36'0 0.0
2018-Apr-16 20:29N 39°35' W 075°36'0 0.0
2018-Apr-16 19:59N 39°35' W 075°36'0 0.0
2018-Apr-16 19:29N 39°35' W 075°36'0 0.0
2018-Apr-16 18:59N 39°35' W 075°36'0 0.0
2018-Apr-16 18:29N 39°35' W 075°36'0 0.0
2018-Apr-16 17:59N 39°35' W 075°36'0 0.0
2018-Apr-16 17:29N 39°35' W 075°36'0 0.0
2018-Apr-16 16:59N 39°35' W 075°36'0 0.0
2018-Apr-16 16:29N 39°35' W 075°36'0 0.4
2018-Apr-16 16:00N 39°35' W 075°35'3 6.6
2018-Apr-16 15:30N 39°33' W 075°33'0 0.3
2018-Apr-16 15:00N 39°33' W 075°33'0 0.0
2018-Apr-16 14:30N 39°33' W 075°33'0 0.0
2018-Apr-16 14:00N 39°33' W 075°33'0 0.0
2018-Apr-16 13:30N 39°33' W 075°33'0 0.0
2018-Apr-16 13:00N 39°33' W 075°33'0 0.1
2018-Apr-16 12:30N 39°33' W 075°33'0 0.2
2018-Apr-16 12:00N 39°33' W 075°33'0 0.2
2018-Apr-16 11:30N 39°32' W 075°33'0 0.0
2018-Apr-16 11:00N 39°32' W 075°33'0 0.0
2018-Apr-16 10:30N 39°32' W 075°33'0 0.0
2018-Apr-16 10:00N 39°32' W 075°33'0 0.2
2018-Apr-16 09:30N 39°32' W 075°33'0 0.1
2018-Apr-16 09:00N 39°32' W 075°33'0 0.0
2018-Apr-16 08:30N 39°32' W 075°33'0 0.0
2018-Apr-16 08:00N 39°32' W 075°33'0 0.0
2018-Apr-16 07:30N 39°32' W 075°33'0 0.0
2018-Apr-16 07:00N 39°32' W 075°33'0 0.0
2018-Apr-16 06:30N 39°32' W 075°33'0 0.0
2018-Apr-16 06:00N 39°32' W 075°33'0 0.0
2018-Apr-16 05:30N 39°32' W 075°33'0 0.1
2018-Apr-16 05:00N 39°33' W 075°33'0 0.2
2018-Apr-16 04:30N 39°33' W 075°33'0 0.0
2018-Apr-16 04:00N 39°33' W 075°33'0 0.1
2018-Apr-16 03:30N 39°33' W 075°33'0 0.0
2018-Apr-16 03:00N 39°33' W 075°33'0 0.0
2018-Apr-16 02:30N 39°33' W 075°33'0 0.0
2018-Apr-16 02:00N 39°33' W 075°33'0 0.0
2018-Apr-16 01:30N 39°33' W 075°33'0 0.1
2018-Apr-16 01:00N 39°33' W 075°33'0 0.1
2018-Apr-16 00:30N 39°33' W 075°33'0 0.1
2018-Apr-16 00:00N 39°33' W 075°33'0 0.1
2018-Apr-15 23:30N 39°33' W 075°33'0 0.1
2018-Apr-15 23:00N 39°32' W 075°33'0 0.1
2018-Apr-15 22:30N 39°32' W 075°33'0 0.1
2018-Apr-15 22:00N 39°32' W 075°33'0 0.0
2018-Apr-15 21:30N 39°32' W 075°33'0 0.0
2018-Apr-15 21:00N 39°32' W 075°33'0 0.0
2018-Apr-15 20:30N 39°32' W 075°33'0 0.0
2018-Apr-15 20:00N 39°32' W 075°33'0 0.0
2018-Apr-15 19:30N 39°32' W 075°33'0 0.0
2018-Apr-15 19:00N 39°32' W 075°33'0 0.0
2018-Apr-15 18:30N 39°32' W 075°33'0 0.0
2018-Apr-15 18:00N 39°32' W 075°33'0 0.0
2018-Apr-15 17:30N 39°32' W 075°33'0 0.1
2018-Apr-15 17:00N 39°33' W 075°33'0 0.2
2018-Apr-15 16:30N 39°33' W 075°33'0 0.1
2018-Apr-15 16:00N 39°33' W 075°33'0 0.0
2018-Apr-15 15:30N 39°33' W 075°33'0 0.0
2018-Apr-15 15:00N 39°33' W 075°33'0 0.0
2018-Apr-15 14:30N 39°33' W 075°33'0 0.0
2018-Apr-15 14:00N 39°33' W 075°33'0 0.0
2018-Apr-15 13:30N 39°33' W 075°33'0 0.0
2018-Apr-15 13:00N 39°33' W 075°33'0 0.0
2018-Apr-15 12:30N 39°33' W 075°33'0 0.1
2018-Apr-15 12:00N 39°33' W 075°33'0 0.2
2018-Apr-15 11:30N 39°33' W 075°33'0 0.1
2018-Apr-15 11:00N 39°32' W 075°33'0 0.1
2018-Apr-15 10:30N 39°32' W 075°33'0 0.0
2018-Apr-15 10:00N 39°32' W 075°33'0 0.0
2018-Apr-15 09:30N 39°32' W 075°33'0 0.0
2018-Apr-15 09:00N 39°32' W 075°33'0 0.0
2018-Apr-15 08:30N 39°32' W 075°33'0 0.0
2018-Apr-15 08:00N 39°32' W 075°33'0 0.0
2018-Apr-15 07:30N 39°32' W 075°33'0 0.0
2018-Apr-15 07:00N 39°32' W 075°33'0 0.0
2018-Apr-15 06:30N 39°32' W 075°33'0 0.0
2018-Apr-15 06:00N 39°32' W 075°33'0 0.0
2018-Apr-15 05:30N 39°32' W 075°33'0 0.0
2018-Apr-15 05:00N 39°32' W 075°33'0 0.0
2018-Apr-15 04:30N 39°32' W 075°33'0 0.2
2018-Apr-15 04:00N 39°33' W 075°33'0 0.2
2018-Apr-15 03:30N 39°33' W 075°33'0 0.0
2018-Apr-15 03:00N 39°33' W 075°33'0 0.0
2018-Apr-15 02:30N 39°33' W 075°33'0 0.0
2018-Apr-15 02:00N 39°33' W 075°33'0 0.0
2018-Apr-15 01:30N 39°33' W 075°33'0 0.0
2018-Apr-15 01:00N 39°33' W 075°33'0 0.0
2018-Apr-15 00:30N 39°33' W 075°33'0 0.0
2018-Apr-15 00:00N 39°33' W 075°33'0 0.1
2018-Apr-14 23:30N 39°33' W 075°33'0 0.1
2018-Apr-14 23:00N 39°33' W 075°33'0 0.3
2018-Apr-14 22:30N 39°32' W 075°33'0 0.1
2018-Apr-14 22:00N 39°32' W 075°33'3 5.6
2018-Apr-14 21:30N 39°35' W 075°34'4 8.6
2018-Apr-14 21:00N 39°39' W 075°33'511.0
2018-Apr-14 20:30N 39°44' W 075°30'611.2
2018-Apr-14 20:00N 39°48' W 075°25'611.0
2018-Apr-14 19:30N 39°51' W 075°18'5 9.1
2018-Apr-14 19:00N 39°52' W 075°13'2 4.0
2018-Apr-14 18:30N 39°54' W 075°13'0 1.0
2018-Apr-14 18:00N 39°55' W 075°13'0 0.0
2018-Apr-14 17:31N 39°55' W 075°13'0 0.0
2018-Apr-14 17:00N 39°55' W 075°13'0 0.0
2018-Apr-14 16:29N 39°55' W 075°13'0 0.0
2018-Apr-14 16:00N 39°55' W 075°13'0 0.0
2018-Apr-14 15:30N 39°55' W 075°13'0 0.0
2018-Apr-14 15:00N 39°55' W 075°13'0 0.0
2018-Apr-14 14:30N 39°55' W 075°13'0 0.0
2018-Apr-14 14:00N 39°55' W 075°13'0 0.0
2018-Apr-14 13:30N 39°55' W 075°13'0 0.0
2018-Apr-14 13:00N 39°55' W 075°13'0 0.0
2018-Apr-14 12:30N 39°55' W 075°13'0 0.0
2018-Apr-14 12:00N 39°55' W 075°13'0 0.0
2018-Apr-14 11:29N 39°55' W 075°13'0 0.0
2018-Apr-14 11:00N 39°55' W 075°13'0 0.0
2018-Apr-14 10:29N 39°55' W 075°13'0 0.0
2018-Apr-14 10:00N 39°55' W 075°13'0 0.0
2018-Apr-14 09:30N 39°55' W 075°13'0 0.0
2018-Apr-14 09:00N 39°55' W 075°13'0 0.0
2018-Apr-14 08:30N 39°55' W 075°13'0 0.0
2018-Apr-14 08:00N 39°55' W 075°13'0 0.0
2018-Apr-14 07:30N 39°55' W 075°13'0 0.0
2018-Apr-14 07:00N 39°55' W 075°13'0 0.0
2018-Apr-14 06:29N 39°55' W 075°13'0 0.0
2018-Apr-14 05:59N 39°55' W 075°13'0 0.0
2018-Apr-14 05:30N 39°55' W 075°13'0 0.0
2018-Apr-14 05:00N 39°55' W 075°13'0 0.0
2018-Apr-14 04:26N 39°55' W 075°13'0 0.1
2018-Apr-14 04:00N 39°55' W 075°13'2 3.6
2018-Apr-14 03:30N 39°53' W 075°12'2 3.7
2018-Apr-14 03:00N 39°52' W 075°13'0 0.0
2018-Apr-14 02:28N 39°52' W 075°13'0 0.0
2018-Apr-14 01:58N 39°52' W 075°13'0 0.0
2018-Apr-14 01:28N 39°52' W 075°13'0 0.0
2018-Apr-14 00:58N 39°52' W 075°13'0 0.3
2018-Apr-14 00:30N 39°52' W 075°14'3 6.8
2018-Apr-14 00:00N 39°51' W 075°18'4 8.5
2018-Apr-13 23:30N 39°49' W 075°23'5 9.1
2018-Apr-13 23:00N 39°47' W 075°28'4 8.8
2018-Apr-13 22:30N 39°43' W 075°31'4 8.2
2018-Apr-13 22:00N 39°39' W 075°33'4 7.1
2018-Apr-13 21:30N 39°36' W 075°34'1 2.5
2018-Apr-13 21:00N 39°35' W 075°35'0 0.4
2018-Apr-13 20:30N 39°35' W 075°36'0 0.0
2018-Apr-13 20:00N 39°35' W 075°36'0 0.0
2018-Apr-13 19:30N 39°35' W 075°36'0 0.0
2018-Apr-13 19:00N 39°35' W 075°36'3 5.3
2018-Apr-13 18:30N 39°34' W 075°33'1 1.4
2018-Apr-13 18:00N 39°33' W 075°33'0 0.0
2018-Apr-13 17:29N 39°33' W 075°33'0 0.0
2018-Apr-13 16:59N 39°33' W 075°33'0 0.0
2018-Apr-13 16:29N 39°33' W 075°33'0 0.3
2018-Apr-13 15:59N 39°33' W 075°33'0 0.2
2018-Apr-13 15:29N 39°33' W 075°33'0 0.0
2018-Apr-13 14:59N 39°33' W 075°33'0 0.0
2018-Apr-13 14:29N 39°33' W 075°33'0 0.0
2018-Apr-13 13:59N 39°33' W 075°33'0 0.0
2018-Apr-13 13:29N 39°33' W 075°33'0 0.0
2018-Apr-13 12:59N 39°33' W 075°33'0 0.0
2018-Apr-13 12:29N 39°33' W 075°33'0 0.0
2018-Apr-13 11:59N 39°33' W 075°33'0 0.0
2018-Apr-13 11:29N 39°33' W 075°33'0 0.0
2018-Apr-13 10:59N 39°33' W 075°33'0 0.1
2018-Apr-13 10:30N 39°33' W 075°33'0 0.2
2018-Apr-13 09:59N 39°33' W 075°33'0 0.1
2018-Apr-13 09:29N 39°33' W 075°33'0 0.0
2018-Apr-13 08:58N 39°33' W 075°33'0 0.0
2018-Apr-13 08:29N 39°33' W 075°33'0 0.0
2018-Apr-13 07:59N 39°33' W 075°33'0 0.0
2018-Apr-13 07:29N 39°33' W 075°33'0 0.0
2018-Apr-13 06:59N 39°33' W 075°33'0 0.0
2018-Apr-13 06:26N 39°33' W 075°33'0 0.0
2018-Apr-13 05:59N 39°33' W 075°33'0 0.0
2018-Apr-13 05:29N 39°33' W 075°33'0 0.0
2018-Apr-13 04:59N 39°33' W 075°33'0 0.1
2018-Apr-13 04:29N 39°33' W 075°33'0 0.0
2018-Apr-13 03:59N 39°33' W 075°33'0 0.2
2018-Apr-13 03:29N 39°33' W 075°33'0 0.1
2018-Apr-13 02:59N 39°33' W 075°33'0 0.0
2018-Apr-13 02:29N 39°33' W 075°33'0 0.0
2018-Apr-13 01:59N 39°33' W 075°33'0 0.0
2018-Apr-13 01:29N 39°33' W 075°33'0 0.0
2018-Apr-13 00:59N 39°33' W 075°33'0 0.0
2018-Apr-13 00:29N 39°33' W 075°33'0 0.8
2018-Apr-13 00:00N 39°33' W 075°33'3 5.5
2018-Apr-12 23:30N 39°35' W 075°36'0 0.0
2018-Apr-12 23:00N 39°35' W 075°36'0 0.0
2018-Apr-12 22:30N 39°35' W 075°36'0 0.0
2018-Apr-12 22:00N 39°35' W 075°36'0 0.0
2018-Apr-12 21:30N 39°35' W 075°36'0 0.0
2018-Apr-12 21:00N 39°35' W 075°36'0 0.0
2018-Apr-12 20:30N 39°35' W 075°36'0 0.0
2018-Apr-12 19:57N 39°35' W 075°36'0 0.0
2018-Apr-12 19:30N 39°35' W 075°36'0 0.0
2018-Apr-12 18:58N 39°35' W 075°36'0 0.0
2018-Apr-12 18:30N 39°35' W 075°36'0 0.0
2018-Apr-12 17:57N 39°35' W 075°36'0 0.0
2018-Apr-12 17:27N 39°35' W 075°36'0 0.0
2018-Apr-12 17:00N 39°35' W 075°36'0 0.0
2018-Apr-12 16:30N 39°35' W 075°36'0 0.0
2018-Apr-12 16:00N 39°35' W 075°36'0 0.0
2018-Apr-12 15:30N 39°35' W 075°36'0 0.0
2018-Apr-12 15:00N 39°35' W 075°36'0 0.0
2018-Apr-12 14:30N 39°35' W 075°36'0 0.0
2018-Apr-12 13:57N 39°35' W 075°36'0 0.0
2018-Apr-12 13:30N 39°35' W 075°36'0 0.0
2018-Apr-12 13:00N 39°35' W 075°36'0 0.0
2018-Apr-12 12:28N 39°35' W 075°36'0 0.0
2018-Apr-12 11:57N 39°35' W 075°36'0 0.0
2018-Apr-12 11:30N 39°35' W 075°36'0 0.0
2018-Apr-12 11:00N 39°35' W 075°36'0 0.0
2018-Apr-12 10:30N 39°35' W 075°36'0 0.0
2018-Apr-12 10:00N 39°35' W 075°36'0 0.0
2018-Apr-12 09:30N 39°35' W 075°36'0 0.0
2018-Apr-12 09:00N 39°35' W 075°36'0 0.0
2018-Apr-12 08:30N 39°35' W 075°36'0 0.0
2018-Apr-12 08:00N 39°35' W 075°36'0 0.0
2018-Apr-12 07:27N 39°35' W 075°36'0 0.0
2018-Apr-12 07:00N 39°35' W 075°36'0 0.0
2018-Apr-12 06:30N 39°35' W 075°36'0 0.0
2018-Apr-12 06:00N 39°35' W 075°36'0 0.0
2018-Apr-12 05:30N 39°35' W 075°36'0 0.0
2018-Apr-12 05:00N 39°35' W 075°36'0 0.0
2018-Apr-12 04:30N 39°35' W 075°36'0 0.0
2018-Apr-12 04:00N 39°35' W 075°36'0 0.0
2018-Apr-12 03:27N 39°35' W 075°36'0 0.0
2018-Apr-12 03:00N 39°35' W 075°36'0 0.0
2018-Apr-12 02:30N 39°35' W 075°36'0 0.0
2018-Apr-12 02:00N 39°35' W 075°36'0 0.0
2018-Apr-12 01:30N 39°35' W 075°36'0 0.0
2018-Apr-12 01:00N 39°35' W 075°36'0 0.0
2018-Apr-12 00:30N 39°35' W 075°36'0 0.0
2018-Apr-12 00:00N 39°35' W 075°36'0 0.0
2018-Apr-11 23:30N 39°35' W 075°36'0 0.3
2018-Apr-11 23:00N 39°35' W 075°36'2 3.5
2018-Apr-11 22:30N 39°34' W 075°35'510.0
2018-Apr-11 22:00N 39°33' W 075°41'510.6
2018-Apr-11 21:29N 39°32' W 075°48'4 7.2
2018-Apr-11 21:00N 39°31' W 075°53'5 9.6
2018-Apr-11 20:29N 39°28' W 075°58'510.5
2018-Apr-11 20:00N 39°25' W 076°02'510.3
2018-Apr-11 19:30N 39°22' W 076°08'510.1
2018-Apr-11 19:00N 39°19' W 076°13'15 7.2
2018-Apr-11 17:00N 39°12' W 076°29'4 0.3
2018-Apr-11 05:11N 39°14' W 076°34'0 0.6
2018-Apr-11 04:47N 39°13' W 076°34'  
Track history (hours):
 
Tides and Currents Weather Stations Pressure Air Temp Water Temp Dewpoint Dewpoint Depression Visibility Wind Speed Wind Dir Waves Ship Positions

Linda Moran

Owner: MORAN TOWING CORP., NEW CANAAN, CT. More information available from US FCC via Universal Licensing System and Coast Guard Vessel Documentation Center.

Last reported at 2018-Apr-20 16:30 UTC. Time now 2018-Apr-20 16:44 UTC.
Position N 39°14' W 076°32'.

Length 156 m; draft 7.6 m.

Type: . MMSI: 367349860.

Date/timePositionNaut miles runAvg speedWind from/ knotsBaromVisibWave heightAir tempDewpointWater temp
2018-Apr-20 16:30N 39°14' W 076°32'0 0.0
2018-Apr-20 16:00N 39°14' W 076°32'0 0.0
2018-Apr-20 15:30N 39°14' W 076°32'0 0.0
2018-Apr-20 15:00N 39°14' W 076°32'0 0.0
2018-Apr-20 14:30N 39°14' W 076°32'0 0.0
2018-Apr-20 14:00N 39°14' W 076°32'0 0.0
2018-Apr-20 13:30N 39°14' W 076°32'0 0.0
2018-Apr-20 13:00N 39°14' W 076°32'0 0.1
2018-Apr-20 12:30N 39°14' W 076°32'0 0.1
2018-Apr-20 12:00N 39°14' W 076°32'0 0.1
2018-Apr-20 11:30N 39°14' W 076°32'3 5.4
2018-Apr-20 11:00N 39°12' W 076°30'5 9.4
2018-Apr-20 10:30N 39°10' W 076°25'5 8.9
2018-Apr-20 10:00N 39°09' W 076°19'1610.3
2018-Apr-20 08:25N 39°22' W 076°07'4 9.8
2018-Apr-20 08:00N 39°24' W 076°02'510.8
2018-Apr-20 07:30N 39°28' W 075°58'510.1
2018-Apr-20 07:00N 39°31' W 075°53'3 7.0
2018-Apr-20 06:30N 39°32' W 075°48'4 8.5
2018-Apr-20 06:00N 39°33' W 075°43'5 9.5
2018-Apr-20 05:30N 39°33' W 075°37'2 4.4
2018-Apr-20 05:00N 39°34' W 075°34'1 2.9
2018-Apr-20 04:31N 39°35' W 075°36'0 0.0
2018-Apr-20 04:01N 39°35' W 075°36'0 0.0
2018-Apr-20 03:29N 39°35' W 075°36'0 0.0
2018-Apr-20 02:59N 39°35' W 075°36'0 0.0
2018-Apr-20 02:29N 39°35' W 075°36'0 0.0
2018-Apr-20 01:59N 39°35' W 075°36'0 0.0
2018-Apr-20 01:29N 39°35' W 075°36'0 0.0
2018-Apr-20 00:59N 39°35' W 075°36'0 0.0
2018-Apr-20 00:29N 39°35' W 075°36'0 0.0
2018-Apr-19 23:59N 39°35' W 075°36'0 0.0
2018-Apr-19 23:17N 39°35' W 075°36'0 0.0
2018-Apr-19 22:59N 39°35' W 075°36'0 0.0
2018-Apr-19 22:29N 39°35' W 075°36'0 0.0
2018-Apr-19 21:59N 39°35' W 075°36'0 0.0
2018-Apr-19 21:29N 39°35' W 075°36'0 0.0
2018-Apr-19 20:59N 39°35' W 075°36'0 0.0
2018-Apr-19 20:29N 39°35' W 075°36'0 0.0
2018-Apr-19 19:59N 39°35' W 075°36'0 0.0
2018-Apr-19 19:29N 39°35' W 075°36'0 0.0
2018-Apr-19 18:59N 39°35' W 075°36'0 0.0
2018-Apr-19 18:29N 39°35' W 075°36'0 0.0
2018-Apr-19 17:59N 39°35' W 075°36'0 0.0
2018-Apr-19 17:29N 39°35' W 075°36'0 0.0
2018-Apr-19 16:59N 39°35' W 075°36'0 0.0
2018-Apr-19 16:29N 39°35' W 075°36'0 0.0
2018-Apr-19 15:59N 39°35' W 075°36'0 0.0
2018-Apr-19 15:29N 39°35' W 075°36'0 0.0
2018-Apr-19 14:59N 39°35' W 075°36'0 0.0
2018-Apr-19 14:29N 39°35' W 075°36'0 0.0
2018-Apr-19 13:50N 39°35' W 075°36'0 0.0
2018-Apr-19 13:29N 39°35' W 075°36'0 0.0
2018-Apr-19 12:59N 39°35' W 075°36'0 0.0
2018-Apr-19 12:29N 39°35' W 075°36'0 0.0
2018-Apr-19 11:59N 39°35' W 075°36'0 0.0
2018-Apr-19 11:29N 39°35' W 075°36'0 0.0
2018-Apr-19 10:59N 39°35' W 075°36'0 0.0
2018-Apr-19 10:29N 39°35' W 075°36'0 0.0
2018-Apr-19 09:59N 39°35' W 075°36'0 0.0
2018-Apr-19 09:29N 39°35' W 075°36'0 0.0
2018-Apr-19 08:59N 39°35' W 075°36'0 0.0
2018-Apr-19 08:29N 39°35' W 075°36'0 0.0
2018-Apr-19 07:59N 39°35' W 075°36'0 0.0
2018-Apr-19 07:29N 39°35' W 075°36'0 0.0
2018-Apr-19 06:59N 39°35' W 075°36'0 0.0
2018-Apr-19 06:29N 39°35' W 075°36'0 0.0
2018-Apr-19 05:59N 39°35' W 075°36'0 0.0
2018-Apr-19 05:29N 39°35' W 075°36'0 0.8
2018-Apr-19 05:00N 39°35' W 075°35'3 5.7
2018-Apr-19 04:30N 39°33' W 075°33'0 0.1
2018-Apr-19 03:59N 39°33' W 075°33'0 0.0
2018-Apr-19 03:29N 39°33' W 075°33'0 0.0
2018-Apr-19 02:59N 39°33' W 075°33'0 0.1
2018-Apr-19 02:29N 39°33' W 075°33'0 0.1
2018-Apr-19 01:59N 39°33' W 075°33'0 0.3
2018-Apr-19 01:29N 39°33' W 075°33'0 0.1
2018-Apr-19 00:59N 39°33' W 075°33'0 0.0
2018-Apr-19 00:29N 39°33' W 075°33'0 0.0
2018-Apr-18 23:59N 39°33' W 075°33'0 0.0
2018-Apr-18 23:29N 39°33' W 075°33'0 0.0
2018-Apr-18 22:59N 39°33' W 075°33'1 1.6
2018-Apr-18 22:30N 39°33' W 075°33'510.3
2018-Apr-18 22:00N 39°39' W 075°34'611.3
2018-Apr-18 21:30N 39°44' W 075°30'510.3
2018-Apr-18 21:00N 39°48' W 075°26'510.0
2018-Apr-18 20:30N 39°51' W 075°21'4 8.8
2018-Apr-18 20:00N 39°51' W 075°15'4 8.2
2018-Apr-18 19:30N 39°53' W 075°10'3 6.2
2018-Apr-18 19:00N 39°56' W 075°08'3 6.0
2018-Apr-18 18:30N 39°58' W 075°07'2 3.8
2018-Apr-18 18:00N 39°59' W 075°04'0 0.0
2018-Apr-18 17:30N 39°59' W 075°04'0 0.0
2018-Apr-18 17:00N 39°59' W 075°04'0 0.0
2018-Apr-18 16:30N 39°59' W 075°04'0 0.0
2018-Apr-18 16:00N 39°59' W 075°04'0 0.0
2018-Apr-18 15:27N 39°59' W 075°04'0 0.0
2018-Apr-18 15:00N 39°59' W 075°04'0 0.0
2018-Apr-18 14:30N 39°59' W 075°04'0 0.0
2018-Apr-18 14:00N 39°59' W 075°04'0 0.0
2018-Apr-18 13:27N 39°59' W 075°04'0 0.0
2018-Apr-18 13:00N 39°59' W 075°04'0 0.0
2018-Apr-18 12:30N 39°59' W 075°04'0 0.0
2018-Apr-18 12:00N 39°59' W 075°04'0 0.0
2018-Apr-18 11:30N 39°59' W 075°04'0 0.0
2018-Apr-18 11:00N 39°59' W 075°04'0 0.0
2018-Apr-18 10:30N 39°59' W 075°04'0 0.0
2018-Apr-18 10:00N 39°59' W 075°04'0 0.0
2018-Apr-18 09:30N 39°59' W 075°04'0 0.0
2018-Apr-18 09:00N 39°59' W 075°04'0 0.0
2018-Apr-18 08:27N 39°59' W 075°04'0 0.0
2018-Apr-18 08:00N 39°59' W 075°04'0 0.0
2018-Apr-18 07:30N 39°59' W 075°04'0 0.0
2018-Apr-18 07:00N 39°59' W 075°04'0 0.0
2018-Apr-18 06:30N 39°59' W 075°04'0 0.0
2018-Apr-18 06:00N 39°59' W 075°04'0 0.0
2018-Apr-18 05:30N 39°59' W 075°04'0 0.0
2018-Apr-18 05:00N 39°59' W 075°04'0 0.0
2018-Apr-18 04:27N 39°59' W 075°04'0 0.0
2018-Apr-18 04:00N 39°59' W 075°04'0 0.0
2018-Apr-18 03:30N 39°59' W 075°04'0 0.0
2018-Apr-18 03:00N 39°59' W 075°04'0 0.0
2018-Apr-18 02:30N 39°59' W 075°04'0 0.0
2018-Apr-18 02:00N 39°59' W 075°04'0 0.0
2018-Apr-18 01:30N 39°59' W 075°04'0 0.0
2018-Apr-18 01:00N 39°59' W 075°04'0 0.0
2018-Apr-18 00:30N 39°59' W 075°04'0 0.0
2018-Apr-18 00:00N 39°59' W 075°04'0 0.0
2018-Apr-17 23:24N 39°59' W 075°04'0 0.0
2018-Apr-17 23:00N 39°59' W 075°04'0 0.0
2018-Apr-17 22:30N 39°59' W 075°04'0 0.0
2018-Apr-17 21:57N 39°59' W 075°04'0 0.0
2018-Apr-17 21:30N 39°59' W 075°04'0 0.0
2018-Apr-17 20:57N 39°59' W 075°04'0 0.0
2018-Apr-17 20:30N 39°59' W 075°04'0 0.0
2018-Apr-17 20:00N 39°59' W 075°04'0 0.0
2018-Apr-17 19:30N 39°59' W 075°04'0 0.0
2018-Apr-17 19:00N 39°59' W 075°04'0 0.0
2018-Apr-17 18:30N 39°59' W 075°04'0 0.0
2018-Apr-17 18:00N 39°59' W 075°04'0 0.0
2018-Apr-17 17:30N 39°59' W 075°04'0 0.0
2018-Apr-17 17:00N 39°59' W 075°04'0 0.0
2018-Apr-17 16:30N 39°59' W 075°04'0 0.0
2018-Apr-17 16:00N 39°59' W 075°04'0 0.0
2018-Apr-17 15:30N 39°59' W 075°04'0 0.0
2018-Apr-17 15:00N 39°59' W 075°04'2 3.8
2018-Apr-17 14:30N 39°58' W 075°07'3 6.7
2018-Apr-17 14:00N 39°55' W 075°08'3 6.1
2018-Apr-17 13:30N 39°53' W 075°11'4 7.8
2018-Apr-17 13:00N 39°51' W 075°15'4 7.7
2018-Apr-17 12:30N 39°51' W 075°20'4 7.5
2018-Apr-17 12:00N 39°49' W 075°24'4 8.8
2018-Apr-17 11:30N 39°46' W 075°29'4 7.5
2018-Apr-17 11:00N 39°42' W 075°31'3 6.5
2018-Apr-17 10:30N 39°40' W 075°32'4 7.1
2018-Apr-17 10:00N 39°36' W 075°34'2 4.3
2018-Apr-17 09:30N 39°34' W 075°34'2 3.8
2018-Apr-17 09:00N 39°35' W 075°36'0 0.0
2018-Apr-17 08:29N 39°35' W 075°36'0 0.0
2018-Apr-17 07:59N 39°35' W 075°36'0 0.0
2018-Apr-17 07:29N 39°35' W 075°36'0 0.0
2018-Apr-17 06:59N 39°35' W 075°36'0 0.0
2018-Apr-17 06:29N 39°35' W 075°36'0 0.0
2018-Apr-17 06:00N 39°35' W 075°36'0 0.0
2018-Apr-17 05:29N 39°35' W 075°36'0 0.0
2018-Apr-17 05:00N 39°35' W 075°36'0 0.0
2018-Apr-17 04:30N 39°35' W 075°36'0 0.0
2018-Apr-17 03:59N 39°35' W 075°36'0 0.0
2018-Apr-17 03:30N 39°35' W 075°36'0 0.0
2018-Apr-17 02:59N 39°35' W 075°36'0 0.0
2018-Apr-17 02:29N 39°35' W 075°36'0 0.0
2018-Apr-17 01:59N 39°35' W 075°36'0 0.0
2018-Apr-17 01:29N 39°35' W 075°36'0 0.0
2018-Apr-17 00:59N 39°35' W 075°36'0 0.0
2018-Apr-17 00:29N 39°35' W 075°36'0 0.0
2018-Apr-16 23:59N 39°35' W 075°36'0 0.0
2018-Apr-16 23:29N 39°35' W 075°36'0 0.0
2018-Apr-16 22:59N 39°35' W 075°36'0 0.0
2018-Apr-16 22:29N 39°35' W 075°36'0 0.0
2018-Apr-16 21:59N 39°35' W 075°36'0 0.0
2018-Apr-16 21:29N 39°35' W 075°36'0 0.0
2018-Apr-16 20:59N 39°35' W 075°36'0 0.0
2018-Apr-16 20:29N 39°35' W 075°36'0 0.0
2018-Apr-16 19:59N 39°35' W 075°36'0 0.0
2018-Apr-16 19:29N 39°35' W 075°36'0 0.0
2018-Apr-16 18:59N 39°35' W 075°36'0 0.0
2018-Apr-16 18:29N 39°35' W 075°36'0 0.0
2018-Apr-16 17:59N 39°35' W 075°36'0 0.0
2018-Apr-16 17:29N 39°35' W 075°36'0 0.0
2018-Apr-16 16:59N 39°35' W 075°36'0 0.0
2018-Apr-16 16:29N 39°35' W 075°36'0 0.4
2018-Apr-16 16:00N 39°35' W 075°35'3 6.6
2018-Apr-16 15:30N 39°33' W 075°33'0 0.3
2018-Apr-16 15:00N 39°33' W 075°33'0 0.0
2018-Apr-16 14:30N 39°33' W 075°33'0 0.0
2018-Apr-16 14:00N 39°33' W 075°33'0 0.0
2018-Apr-16 13:30N 39°33' W 075°33'0 0.0
2018-Apr-16 13:00N 39°33' W 075°33'0 0.1
2018-Apr-16 12:30N 39°33' W 075°33'0 0.2
2018-Apr-16 12:00N 39°33' W 075°33'0 0.2
2018-Apr-16 11:30N 39°32' W 075°33'0 0.0
2018-Apr-16 11:00N 39°32' W 075°33'0 0.0
2018-Apr-16 10:30N 39°32' W 075°33'0 0.0
2018-Apr-16 10:00N 39°32' W 075°33'0 0.2
2018-Apr-16 09:30N 39°32' W 075°33'0 0.1
2018-Apr-16 09:00N 39°32' W 075°33'0 0.0
2018-Apr-16 08:30N 39°32' W 075°33'0 0.0
2018-Apr-16 08:00N 39°32' W 075°33'0 0.0
2018-Apr-16 07:30N 39°32' W 075°33'0 0.0
2018-Apr-16 07:00N 39°32' W 075°33'0 0.0
2018-Apr-16 06:30N 39°32' W 075°33'0 0.0
2018-Apr-16 06:00N 39°32' W 075°33'0 0.0
2018-Apr-16 05:30N 39°32' W 075°33'0 0.1
2018-Apr-16 05:00N 39°33' W 075°33'0 0.2
2018-Apr-16 04:30N 39°33' W 075°33'0 0.0
2018-Apr-16 04:00N 39°33' W 075°33'0 0.1
2018-Apr-16 03:30N 39°33' W 075°33'0 0.0
2018-Apr-16 03:00N 39°33' W 075°33'0 0.0
2018-Apr-16 02:30N 39°33' W 075°33'0 0.0
2018-Apr-16 02:00N 39°33' W 075°33'0 0.0
2018-Apr-16 01:30N 39°33' W 075°33'0 0.1
2018-Apr-16 01:00N 39°33' W 075°33'0 0.1
2018-Apr-16 00:30N 39°33' W 075°33'0 0.1
2018-Apr-16 00:00N 39°33' W 075°33'0 0.1
2018-Apr-15 23:30N 39°33' W 075°33'0 0.1
2018-Apr-15 23:00N 39°32' W 075°33'0 0.1
2018-Apr-15 22:30N 39°32' W 075°33'0 0.1
2018-Apr-15 22:00N 39°32' W 075°33'0 0.0
2018-Apr-15 21:30N 39°32' W 075°33'0 0.0
2018-Apr-15 21:00N 39°32' W 075°33'0 0.0
2018-Apr-15 20:30N 39°32' W 075°33'0 0.0
2018-Apr-15 20:00N 39°32' W 075°33'0 0.0
2018-Apr-15 19:30N 39°32' W 075°33'0 0.0
2018-Apr-15 19:00N 39°32' W 075°33'0 0.0
2018-Apr-15 18:30N 39°32' W 075°33'0 0.0
2018-Apr-15 18:00N 39°32' W 075°33'0 0.0
2018-Apr-15 17:30N 39°32' W 075°33'0 0.1
2018-Apr-15 17:00N 39°33' W 075°33'0 0.2
2018-Apr-15 16:30N 39°33' W 075°33'0 0.1
2018-Apr-15 16:00N 39°33' W 075°33'0 0.0
2018-Apr-15 15:30N 39°33' W 075°33'0 0.0
2018-Apr-15 15:00N 39°33' W 075°33'0 0.0
2018-Apr-15 14:30N 39°33' W 075°33'0 0.0
2018-Apr-15 14:00N 39°33' W 075°33'0 0.0
2018-Apr-15 13:30N 39°33' W 075°33'0 0.0
2018-Apr-15 13:00N 39°33' W 075°33'0 0.0
2018-Apr-15 12:30N 39°33' W 075°33'0 0.1
2018-Apr-15 12:00N 39°33' W 075°33'0 0.2
2018-Apr-15 11:30N 39°33' W 075°33'0 0.1
2018-Apr-15 11:00N 39°32' W 075°33'0 0.1
2018-Apr-15 10:30N 39°32' W 075°33'0 0.0
2018-Apr-15 10:00N 39°32' W 075°33'0 0.0
2018-Apr-15 09:30N 39°32' W 075°33'0 0.0
2018-Apr-15 09:00N 39°32' W 075°33'0 0.0
2018-Apr-15 08:30N 39°32' W 075°33'0 0.0
2018-Apr-15 08:00N 39°32' W 075°33'0 0.0
2018-Apr-15 07:30N 39°32' W 075°33'0 0.0
2018-Apr-15 07:00N 39°32' W 075°33'0 0.0
2018-Apr-15 06:30N 39°32' W 075°33'0 0.0
2018-Apr-15 06:00N 39°32' W 075°33'0 0.0
2018-Apr-15 05:30N 39°32' W 075°33'0 0.0
2018-Apr-15 05:00N 39°32' W 075°33'0 0.0
2018-Apr-15 04:30N 39°32' W 075°33'0 0.2
2018-Apr-15 04:00N 39°33' W 075°33'0 0.2
2018-Apr-15 03:30N 39°33' W 075°33'0 0.0
2018-Apr-15 03:00N 39°33' W 075°33'0 0.0
2018-Apr-15 02:30N 39°33' W 075°33'0 0.0
2018-Apr-15 02:00N 39°33' W 075°33'0 0.0
2018-Apr-15 01:30N 39°33' W 075°33'0 0.0
2018-Apr-15 01:00N 39°33' W 075°33'0 0.0
2018-Apr-15 00:30N 39°33' W 075°33'0 0.0
2018-Apr-15 00:00N 39°33' W 075°33'0 0.1
2018-Apr-14 23:30N 39°33' W 075°33'0 0.1
2018-Apr-14 23:00N 39°33' W 075°33'0 0.3
2018-Apr-14 22:30N 39°32' W 075°33'0 0.1
2018-Apr-14 22:00N 39°32' W 075°33'3 5.6
2018-Apr-14 21:30N 39°35' W 075°34'4 8.6
2018-Apr-14 21:00N 39°39' W 075°33'511.0
2018-Apr-14 20:30N 39°44' W 075°30'611.2
2018-Apr-14 20:00N 39°48' W 075°25'611.0
2018-Apr-14 19:30N 39°51' W 075°18'5 9.1
2018-Apr-14 19:00N 39°52' W 075°13'2 4.0
2018-Apr-14 18:30N 39°54' W 075°13'0 1.0
2018-Apr-14 18:00N 39°55' W 075°13'0 0.0
2018-Apr-14 17:31N 39°55' W 075°13'0 0.0
2018-Apr-14 17:00N 39°55' W 075°13'0 0.0
2018-Apr-14 16:29N 39°55' W 075°13'0 0.0
2018-Apr-14 16:00N 39°55' W 075°13'0 0.0
2018-Apr-14 15:30N 39°55' W 075°13'0 0.0
2018-Apr-14 15:00N 39°55' W 075°13'0 0.0
2018-Apr-14 14:30N 39°55' W 075°13'0 0.0
2018-Apr-14 14:00N 39°55' W 075°13'0 0.0
2018-Apr-14 13:30N 39°55' W 075°13'0 0.0
2018-Apr-14 13:00N 39°55' W 075°13'0 0.0
2018-Apr-14 12:30N 39°55' W 075°13'0 0.0
2018-Apr-14 12:00N 39°55' W 075°13'0 0.0
2018-Apr-14 11:29N 39°55' W 075°13'0 0.0
2018-Apr-14 11:00N 39°55' W 075°13'0 0.0
2018-Apr-14 10:29N 39°55' W 075°13'0 0.0
2018-Apr-14 10:00N 39°55' W 075°13'0 0.0
2018-Apr-14 09:30N 39°55' W 075°13'0 0.0
2018-Apr-14 09:00N 39°55' W 075°13'0 0.0
2018-Apr-14 08:30N 39°55' W 075°13'0 0.0
2018-Apr-14 08:00N 39°55' W 075°13'0 0.0
2018-Apr-14 07:30N 39°55' W 075°13'0 0.0
2018-Apr-14 07:00N 39°55' W 075°13'0 0.0
2018-Apr-14 06:29N 39°55' W 075°13'0 0.0
2018-Apr-14 05:59N 39°55' W 075°13'0 0.0
2018-Apr-14 05:30N 39°55' W 075°13'0 0.0
2018-Apr-14 05:00N 39°55' W 075°13'0 0.0
2018-Apr-14 04:26N 39°55' W 075°13'0 0.1
2018-Apr-14 04:00N 39°55' W 075°13'2 3.6
2018-Apr-14 03:30N 39°53' W 075°12'2 3.7
2018-Apr-14 03:00N 39°52' W 075°13'0 0.0
2018-Apr-14 02:28N 39°52' W 075°13'0 0.0
2018-Apr-14 01:58N 39°52' W 075°13'0 0.0
2018-Apr-14 01:28N 39°52' W 075°13'0 0.0
2018-Apr-14 00:58N 39°52' W 075°13'0 0.3
2018-Apr-14 00:30N 39°52' W 075°14'3 6.8
2018-Apr-14 00:00N 39°51' W 075°18'4 8.5
2018-Apr-13 23:30N 39°49' W 075°23'5 9.1
2018-Apr-13 23:00N 39°47' W 075°28'4 8.8
2018-Apr-13 22:30N 39°43' W 075°31'4 8.2
2018-Apr-13 22:00N 39°39' W 075°33'4 7.1
2018-Apr-13 21:30N 39°36' W 075°34'1 2.5
2018-Apr-13 21:00N 39°35' W 075°35'0 0.4
2018-Apr-13 20:30N 39°35' W 075°36'0 0.0
2018-Apr-13 20:00N 39°35' W 075°36'0 0.0
2018-Apr-13 19:30N 39°35' W 075°36'0 0.0
2018-Apr-13 19:00N 39°35' W 075°36'3 5.3
2018-Apr-13 18:30N 39°34' W 075°33'1 1.4
2018-Apr-13 18:00N 39°33' W 075°33'0 0.0
2018-Apr-13 17:29N 39°33' W 075°33'0 0.0
2018-Apr-13 16:59N 39°33' W 075°33'0 0.0
2018-Apr-13 16:29N 39°33' W 075°33'0 0.3
2018-Apr-13 15:59N 39°33' W 075°33'0 0.2
2018-Apr-13 15:29N 39°33' W 075°33'0 0.0
2018-Apr-13 14:59N 39°33' W 075°33'0 0.0
2018-Apr-13 14:29N 39°33' W 075°33'0 0.0
2018-Apr-13 13:59N 39°33' W 075°33'0 0.0
2018-Apr-13 13:29N 39°33' W 075°33'0 0.0
2018-Apr-13 12:59N 39°33' W 075°33'0 0.0
2018-Apr-13 12:29N 39°33' W 075°33'0 0.0
2018-Apr-13 11:59N 39°33' W 075°33'0 0.0
2018-Apr-13 11:29N 39°33' W 075°33'0 0.0
2018-Apr-13 10:59N 39°33' W 075°33'0 0.1
2018-Apr-13 10:30N 39°33' W 075°33'0 0.2
2018-Apr-13 09:59N 39°33' W 075°33'0 0.1
2018-Apr-13 09:29N 39°33' W 075°33'0 0.0
2018-Apr-13 08:58N 39°33' W 075°33'0 0.0
2018-Apr-13 08:29N 39°33' W 075°33'0 0.0
2018-Apr-13 07:59N 39°33' W 075°33'0 0.0
2018-Apr-13 07:29N 39°33' W 075°33'0 0.0
2018-Apr-13 06:59N 39°33' W 075°33'0 0.0
2018-Apr-13 06:26N 39°33' W 075°33'0 0.0
2018-Apr-13 05:59N 39°33' W 075°33'0 0.0
2018-Apr-13 05:29N 39°33' W 075°33'0 0.0
2018-Apr-13 04:59N 39°33' W 075°33'0 0.1
2018-Apr-13 04:29N 39°33' W 075°33'0 0.0
2018-Apr-13 03:59N 39°33' W 075°33'0 0.2
2018-Apr-13 03:29N 39°33' W 075°33'0 0.1
2018-Apr-13 02:59N 39°33' W 075°33'0 0.0
2018-Apr-13 02:29N 39°33' W 075°33'0 0.0
2018-Apr-13 01:59N 39°33' W 075°33'0 0.0
2018-Apr-13 01:29N 39°33' W 075°33'0 0.0
2018-Apr-13 00:59N 39°33' W 075°33'0 0.0
2018-Apr-13 00:29N 39°33' W 075°33'0 0.8
2018-Apr-13 00:00N 39°33' W 075°33'3 5.5
2018-Apr-12 23:30N 39°35' W 075°36'0 0.0
2018-Apr-12 23:00N 39°35' W 075°36'0 0.0
2018-Apr-12 22:30N 39°35' W 075°36'0 0.0
2018-Apr-12 22:00N 39°35' W 075°36'0 0.0
2018-Apr-12 21:30N 39°35' W 075°36'0 0.0
2018-Apr-12 21:00N 39°35' W 075°36'0 0.0
2018-Apr-12 20:30N 39°35' W 075°36'0 0.0
2018-Apr-12 19:57N 39°35' W 075°36'0 0.0
2018-Apr-12 19:30N 39°35' W 075°36'0 0.0
2018-Apr-12 18:58N 39°35' W 075°36'0 0.0
2018-Apr-12 18:30N 39°35' W 075°36'0 0.0
2018-Apr-12 17:57N 39°35' W 075°36'0 0.0
2018-Apr-12 17:27N 39°35' W 075°36'0 0.0
2018-Apr-12 17:00N 39°35' W 075°36'0 0.0
2018-Apr-12 16:30N 39°35' W 075°36'0 0.0
2018-Apr-12 16:00N 39°35' W 075°36'0 0.0
2018-Apr-12 15:30N 39°35' W 075°36'0 0.0
2018-Apr-12 15:00N 39°35' W 075°36'0 0.0
2018-Apr-12 14:30N 39°35' W 075°36'0 0.0
2018-Apr-12 13:57N 39°35' W 075°36'0 0.0
2018-Apr-12 13:30N 39°35' W 075°36'0 0.0
2018-Apr-12 13:00N 39°35' W 075°36'0 0.0
2018-Apr-12 12:28N 39°35' W 075°36'0 0.0
2018-Apr-12 11:57N 39°35' W 075°36'0 0.0
2018-Apr-12 11:30N 39°35' W 075°36'0 0.0
2018-Apr-12 11:00N 39°35' W 075°36'0 0.0
2018-Apr-12 10:30N 39°35' W 075°36'0 0.0
2018-Apr-12 10:00N 39°35' W 075°36'0 0.0
2018-Apr-12 09:30N 39°35' W 075°36'0 0.0
2018-Apr-12 09:00N 39°35' W 075°36'0 0.0
2018-Apr-12 08:30N 39°35' W 075°36'0 0.0
2018-Apr-12 08:00N 39°35' W 075°36'0 0.0
2018-Apr-12 07:27N 39°35' W 075°36'0 0.0
2018-Apr-12 07:00N 39°35' W 075°36'0 0.0
2018-Apr-12 06:30N 39°35' W 075°36'0 0.0
2018-Apr-12 06:00N 39°35' W 075°36'0 0.0
2018-Apr-12 05:30N 39°35' W 075°36'0 0.0
2018-Apr-12 05:00N 39°35' W 075°36'0 0.0
2018-Apr-12 04:30N 39°35' W 075°36'0 0.0
2018-Apr-12 04:00N 39°35' W 075°36'0 0.0
2018-Apr-12 03:27N 39°35' W 075°36'0 0.0
2018-Apr-12 03:00N 39°35' W 075°36'0 0.0
2018-Apr-12 02:30N 39°35' W 075°36'0 0.0
2018-Apr-12 02:00N 39°35' W 075°36'0 0.0
2018-Apr-12 01:30N 39°35' W 075°36'0 0.0
2018-Apr-12 01:00N 39°35' W 075°36'0 0.0
2018-Apr-12 00:30N 39°35' W 075°36'0 0.0
2018-Apr-12 00:00N 39°35' W 075°36'0 0.0
2018-Apr-11 23:30N 39°35' W 075°36'0 0.3
2018-Apr-11 23:00N 39°35' W 075°36'2 3.5
2018-Apr-11 22:30N 39°34' W 075°35'510.0
2018-Apr-11 22:00N 39°33' W 075°41'510.6
2018-Apr-11 21:29N 39°32' W 075°48'4 7.2
2018-Apr-11 21:00N 39°31' W 075°53'5 9.6
2018-Apr-11 20:29N 39°28' W 075°58'510.5
2018-Apr-11 20:00N 39°25' W 076°02'510.3
2018-Apr-11 19:30N 39°22' W 076°08'510.1
2018-Apr-11 19:00N 39°19' W 076°13'15 7.2
2018-Apr-11 17:00N 39°12' W 076°29'4 0.3
2018-Apr-11 05:11N 39°14' W 076°34'0 0.6
2018-Apr-11 04:47N 39°13' W 076°34'  

Dump ship's entire track history